createdAt,value
2022-12-13T00:00:09.419Z,2.33
2022-12-13T00:02:43.042Z,1.38
2022-12-13T00:05:15.793Z,1.38
2022-12-13T00:07:44.585Z,2.58
2022-12-13T00:10:13.399Z,0.95
2022-12-13T00:12:43.659Z,1.58
2022-12-13T00:15:16.922Z,1.70
2022-12-13T00:17:59.210Z,1.08
2022-12-13T00:20:29.353Z,2.35
2022-12-13T00:22:57.828Z,1.80
2022-12-13T00:25:35.258Z,1.73
2022-12-13T00:28:05.555Z,1.55
2022-12-13T00:30:33.742Z,1.70
2022-12-13T00:33:03.919Z,2.15
2022-12-13T00:35:32.603Z,2.20
2022-12-13T00:38:00.679Z,2.00
2022-12-13T00:40:29.503Z,1.58
2022-12-13T00:43:01.951Z,2.25
2022-12-13T00:45:30.990Z,1.83
2022-12-13T00:47:58.751Z,1.45
2022-12-13T00:50:31.101Z,1.90
2022-12-13T00:53:00.564Z,1.65
2022-12-13T00:55:29.337Z,1.33
2022-12-13T00:57:58.358Z,1.52
2022-12-13T01:00:29.109Z,2.00
2022-12-13T01:02:56.875Z,1.55
2022-12-13T01:06:04.109Z,2.47
2022-12-13T01:08:19.181Z,2.25
2022-12-13T01:10:48.142Z,1.63
2022-12-13T01:13:17.616Z,2.38
2022-12-13T01:15:46.670Z,2.20
2022-12-13T01:18:18.494Z,1.80
2022-12-13T01:21:07.469Z,1.88
2022-12-13T01:23:35.591Z,3.03
2022-12-13T01:26:10.841Z,1.92
2022-12-13T01:28:39.245Z,1.80
2022-12-13T01:31:11.387Z,2.65
2022-12-13T01:33:39.972Z,1.48
2022-12-13T01:36:13.084Z,1.75
2022-12-13T01:38:44.481Z,1.23
2022-12-13T01:41:27.297Z,2.80
2022-12-13T01:44:01.491Z,1.48
2022-12-13T01:49:05.709Z,2.03
2022-12-13T01:51:56.654Z,4.05
2022-12-13T01:54:33.999Z,3.03
2022-12-13T01:57:06.844Z,2.72
2022-12-13T01:59:37.113Z,1.80
2022-12-13T02:02:05.880Z,2.20
2022-12-13T02:04:56.177Z,2.22
2022-12-13T02:07:32.170Z,1.38
2022-12-13T02:10:04.035Z,3.17
2022-12-13T02:12:35.355Z,1.38
2022-12-13T02:15:12.879Z,2.40
2022-12-13T02:17:45.917Z,3.65
2022-12-13T02:20:34.603Z,1.85
2022-12-13T02:23:26.596Z,1.70
2022-12-13T02:26:25.151Z,1.85
2022-12-13T02:29:30.760Z,1.67
2022-12-13T02:32:14.438Z,1.67
2022-12-13T02:34:50.775Z,1.98
2022-12-13T02:37:31.372Z,2.28
2022-12-13T02:40:06.755Z,1.55
2022-12-13T02:42:42.158Z,2.35
2022-12-13T02:45:20.968Z,1.25
2022-12-13T02:47:53.176Z,1.45
2022-12-13T02:50:23.784Z,3.65
2022-12-13T02:52:52.793Z,3.58
2022-12-13T02:55:23.927Z,2.60
2022-12-13T03:00:49.649Z,2.47
2022-12-13T03:03:48.412Z,3.45
2022-12-13T03:06:41.143Z,2.90
2022-12-13T03:09:27.001Z,3.35
2022-12-13T03:12:31.962Z,2.45
2022-12-13T03:15:35.162Z,5.30
2022-12-13T03:18:18.145Z,3.97
2022-12-13T03:20:55.236Z,3.75
2022-12-13T03:23:23.940Z,3.42
2022-12-13T03:25:57.379Z,2.97
2022-12-13T03:30:52.951Z,2.47
2022-12-13T03:33:20.623Z,3.90
2022-12-13T03:35:48.480Z,3.25
2022-12-13T03:38:21.903Z,4.90
2022-12-13T03:40:58.513Z,5.63
2022-12-13T03:43:26.634Z,3.95
2022-12-13T03:45:55.183Z,4.57
2022-12-13T03:48:23.775Z,2.45
2022-12-13T03:50:53.199Z,2.53
2022-12-13T03:53:32.557Z,3.83
2022-12-13T03:56:06.835Z,3.40
2022-12-13T03:58:37.627Z,3.83
2022-12-13T04:01:10.909Z,3.47
2022-12-13T04:03:41.895Z,3.60
2022-12-13T04:06:10.910Z,3.60
2022-12-13T04:08:39.956Z,2.83
2022-12-13T04:11:26.834Z,3.35
2022-12-13T04:13:55.343Z,3.30
2022-12-13T04:16:24.277Z,2.63
2022-12-13T04:18:52.300Z,3.17
2022-12-13T04:21:20.039Z,3.65
2022-12-13T04:23:47.793Z,3.67
2022-12-13T04:26:15.654Z,3.72
2022-12-13T04:28:43.244Z,5.22
2022-12-13T04:31:10.955Z,3.70
2022-12-13T04:33:38.651Z,4.25
2022-12-13T04:36:06.697Z,3.58
2022-12-13T04:38:34.305Z,4.07
2022-12-13T04:41:13.865Z,3.85
2022-12-13T04:43:41.570Z,3.17
2022-12-13T04:46:09.286Z,5.15
2022-12-13T04:48:37.032Z,5.32
2022-12-13T04:51:04.655Z,5.10
2022-12-13T04:53:32.549Z,5.07
2022-12-13T04:56:03.211Z,4.30
2022-12-13T04:58:31.571Z,3.90
2022-12-13T05:00:59.353Z,5.57
2022-12-13T05:03:29.036Z,5.45
2022-12-13T05:05:57.204Z,5.57
2022-12-13T05:08:24.926Z,7.15
2022-12-13T05:10:54.498Z,7.20
2022-12-13T05:13:22.070Z,4.55
2022-12-13T05:15:56.707Z,8.05
2022-12-13T05:18:24.531Z,5.32
2022-12-13T05:20:52.354Z,6.35
2022-12-13T05:23:22.189Z,5.13
2022-12-13T05:25:51.667Z,6.03
2022-12-13T05:28:28.358Z,4.13
2022-12-13T05:30:59.663Z,4.97
2022-12-13T05:33:27.409Z,6.10
2022-12-13T05:35:59.367Z,4.32
2022-12-13T05:38:29.647Z,5.47
2022-12-13T05:40:57.437Z,4.07
2022-12-13T05:43:42.179Z,4.75
2022-12-13T05:46:12.849Z,3.30
2022-12-13T05:48:41.450Z,4.10
2022-12-13T05:51:11.933Z,3.58
2022-12-13T05:53:42.114Z,5.00
2022-12-13T05:56:11.688Z,3.97
2022-12-13T05:58:40.810Z,5.03
2022-12-13T06:01:11.399Z,3.53
2022-12-13T06:03:40.257Z,5.82
2022-12-13T06:06:09.776Z,4.25
2022-12-13T06:08:37.762Z,5.30
2022-12-13T06:11:10.970Z,5.55
2022-12-13T06:13:43.263Z,6.05
2022-12-13T06:16:21.773Z,7.05
2022-12-13T06:19:02.739Z,5.85
2022-12-13T06:21:41.769Z,8.48
2022-12-13T06:24:22.400Z,5.82
2022-12-13T06:26:51.191Z,4.75
2022-12-13T06:29:23.199Z,4.63
2022-12-13T06:32:02.293Z,6.30
2022-12-13T06:34:36.135Z,4.95
2022-12-13T06:37:11.279Z,4.97
2022-12-13T06:39:39.274Z,5.25
2022-12-13T06:42:11.104Z,5.25
2022-12-13T06:44:38.765Z,5.22
2022-12-13T06:47:11.808Z,4.75
2022-12-13T06:49:44.233Z,5.00
2022-12-13T06:52:14.542Z,4.68
2022-12-13T06:54:43.412Z,4.63
2022-12-13T06:57:14.593Z,5.20
2022-12-13T06:59:42.992Z,4.78
2022-12-13T07:02:24.424Z,6.63
2022-12-13T07:04:53.832Z,6.07
2022-12-13T07:07:21.891Z,6.50
2022-12-13T07:09:49.576Z,7.88
2022-12-13T07:12:18.966Z,8.77
2022-12-13T07:14:46.575Z,10.63
2022-12-13T07:17:32.640Z,7.57
2022-12-13T07:20:05.025Z,9.32
2022-12-13T07:22:35.002Z,7.55
2022-12-13T07:25:05.538Z,8.63
2022-12-13T07:27:34.405Z,7.93
2022-12-13T07:30:02.468Z,5.68
2022-12-13T07:32:31.587Z,6.65
2022-12-13T07:34:59.289Z,6.47
2022-12-13T07:37:29.342Z,8.40
2022-12-13T07:40:04.019Z,5.40
2022-12-13T07:42:32.650Z,4.63
2022-12-13T07:45:00.747Z,5.75
2022-12-13T07:47:32.479Z,4.38
2022-12-13T07:50:01.662Z,5.55
2022-12-13T07:52:31.425Z,3.95
2022-12-13T07:54:59.237Z,4.82
2022-12-13T07:57:27.429Z,4.25
2022-12-13T07:59:55.108Z,5.95
2022-12-13T08:02:22.926Z,5.68
2022-12-13T08:04:54.627Z,4.22
2022-12-13T08:07:23.159Z,5.28
2022-12-13T08:09:53.011Z,4.25
2022-12-13T08:12:22.439Z,6.43
2022-12-13T08:14:53.326Z,9.35
2022-12-13T08:17:21.458Z,3.90
2022-12-13T08:19:49.201Z,7.03
2022-12-13T08:22:24.196Z,5.88
2022-12-13T08:24:52.359Z,7.68
2022-12-13T08:27:20.082Z,4.68
2022-12-13T08:29:49.364Z,4.60
2022-12-13T08:32:17.562Z,4.95
2022-12-13T08:34:46.128Z,5.53
2022-12-13T08:37:14.252Z,7.13
2022-12-13T08:39:42.125Z,6.18
2022-12-13T08:42:18.831Z,5.60
2022-12-13T08:44:52.972Z,3.83
2022-12-13T08:47:25.536Z,5.03
2022-12-13T08:50:04.558Z,4.15
2022-12-13T08:52:40.499Z,3.67
2022-12-13T08:55:11.432Z,6.07
2022-12-13T08:57:41.008Z,5.82
2022-12-13T09:00:12.591Z,6.40
2022-12-13T09:02:40.440Z,6.72
2022-12-13T09:05:09.934Z,6.30
2022-12-13T09:07:41.391Z,6.47
2022-12-13T09:10:27.082Z,5.25
2022-12-13T09:13:02.464Z,7.00
2022-12-13T09:15:46.139Z,6.90
2022-12-13T09:18:15.163Z,6.63
2022-12-13T09:20:52.439Z,4.30
2022-12-13T09:23:24.077Z,6.93
2022-12-13T09:25:56.597Z,5.07
2022-12-13T09:28:37.304Z,5.65
2022-12-13T09:31:14.568Z,6.65
2022-12-13T09:33:43.279Z,6.20
2022-12-13T09:36:17.791Z,8.15
2022-12-13T09:38:46.117Z,5.32
2022-12-13T09:41:20.461Z,5.90
2022-12-13T09:44:01.372Z,4.82
2022-12-13T09:46:44.190Z,7.85
2022-12-13T09:49:23.618Z,3.97
2022-12-13T09:52:11.797Z,5.68
2022-12-13T09:54:48.729Z,4.53
2022-12-13T09:57:35.023Z,6.22
2022-12-13T10:00:07.473Z,8.38
2022-12-13T10:02:52.205Z,6.90
2022-12-13T10:05:34.136Z,7.57
2022-12-13T10:08:21.207Z,5.88
2022-12-13T10:10:51.697Z,4.37
2022-12-13T10:13:26.030Z,6.03
2022-12-13T10:16:08.555Z,5.88
2022-12-13T10:18:39.449Z,6.13
2022-12-13T10:21:36.625Z,6.07
2022-12-13T10:24:31.450Z,4.20
2022-12-13T10:27:15.895Z,7.43
2022-12-13T10:30:13.131Z,5.13
2022-12-13T10:32:56.092Z,10.07
2022-12-13T10:35:28.580Z,9.95
2022-12-13T10:37:58.597Z,7.68
2022-12-13T10:40:33.435Z,5.50
2022-12-13T10:43:15.673Z,9.88
2022-12-13T10:45:59.611Z,8.00
2022-12-13T10:48:50.304Z,5.93
2022-12-13T10:51:21.177Z,5.78
2022-12-13T10:53:50.230Z,5.55
2022-12-13T10:56:23.395Z,6.32
2022-12-13T10:59:23.378Z,7.40
2022-12-13T11:01:51.121Z,6.20
2022-12-13T11:04:29.616Z,9.98
2022-12-13T11:07:00.622Z,8.38
2022-12-13T11:09:39.208Z,9.02
2022-12-13T11:12:21.414Z,11.93
2022-12-13T11:15:01.053Z,9.13
2022-12-13T11:17:31.776Z,9.82
2022-12-13T11:20:04.612Z,9.35
2022-12-13T11:22:38.295Z,10.85
2022-12-13T11:25:19.998Z,10.50
2022-12-13T11:28:37.570Z,11.02
2022-12-13T11:31:28.108Z,7.65
2022-12-13T11:33:58.437Z,6.65
2022-12-13T11:36:58.385Z,8.50
2022-12-13T11:39:35.833Z,8.73
2022-12-13T11:42:12.397Z,5.95
2022-12-13T11:45:04.345Z,8.77
2022-12-13T11:47:40.941Z,11.57
2022-12-13T11:50:32.699Z,11.88
2022-12-13T11:55:44.893Z,10.57
2022-12-13T11:59:10.130Z,9.38
2022-12-13T12:01:53.816Z,10.45
2022-12-13T12:04:32.629Z,11.95
2022-12-13T12:10:36.821Z,9.15
2022-12-13T12:13:29.042Z,9.18
2022-12-13T12:16:15.153Z,6.90
2022-12-13T12:18:42.634Z,9.20
2022-12-13T12:22:12.049Z,9.50
2022-12-13T12:24:53.927Z,7.93
2022-12-13T12:27:31.334Z,8.18
2022-12-13T12:30:09.478Z,14.32
2022-12-13T12:33:00.327Z,8.27
2022-12-13T12:35:49.647Z,10.73
2022-12-13T12:38:35.815Z,11.05
2022-12-13T12:41:32.374Z,10.25
2022-12-13T12:44:20.983Z,12.90
2022-12-13T12:47:08.770Z,13.73
2022-12-13T12:49:47.046Z,16.10
2022-12-13T12:52:46.228Z,16.50
2022-12-13T12:55:41.941Z,12.70
2022-12-13T12:58:31.470Z,16.27
2022-12-13T13:01:25.373Z,14.07
2022-12-13T13:04:01.527Z,14.50
2022-12-13T13:06:41.422Z,13.57
2022-12-13T13:09:11.905Z,16.15
2022-12-13T13:11:43.027Z,15.90
2022-12-13T13:14:26.918Z,13.15
2022-12-13T13:16:56.101Z,17.52
2022-12-13T13:19:32.842Z,17.85
2022-12-13T13:22:01.897Z,12.27
2022-12-13T13:24:33.100Z,10.52
2022-12-13T13:27:09.907Z,12.32
2022-12-13T13:29:43.873Z,8.15
2022-12-13T13:32:28.062Z,7.35
2022-12-13T13:35:29.438Z,12.73
2022-12-13T13:37:59.629Z,13.38
2022-12-13T13:40:39.428Z,12.75
2022-12-13T13:43:06.977Z,7.53
2022-12-13T13:45:51.226Z,11.80
2022-12-13T13:48:37.309Z,15.25
2022-12-13T13:51:13.840Z,10.75
2022-12-13T13:54:23.166Z,14.35
2022-12-13T13:58:07.559Z,13.07
2022-12-13T14:00:39.084Z,14.47
2022-12-13T14:03:35.079Z,16.00
2022-12-13T14:06:24.615Z,17.42
2022-12-13T14:09:27.293Z,11.68
2022-12-13T14:12:15.734Z,10.85
2022-12-13T14:15:24.074Z,16.10
2022-12-13T14:18:27.068Z,11.30
2022-12-13T14:21:15.936Z,12.95
2022-12-13T14:24:18.289Z,12.95
2022-12-13T14:26:51.537Z,15.88
2022-12-13T14:29:31.946Z,13.57
2022-12-13T14:32:00.078Z,18.15
2022-12-13T14:34:33.289Z,17.45
2022-12-13T14:37:06.725Z,14.25
2022-12-13T14:39:39.142Z,11.02
2022-12-13T14:42:30.620Z,17.08
2022-12-13T14:45:25.557Z,12.38
2022-12-13T14:47:55.073Z,15.80
2022-12-13T14:50:26.136Z,11.45
2022-12-13T14:52:56.509Z,14.52
2022-12-13T14:55:36.739Z,15.80
2022-12-13T14:58:18.381Z,13.73
2022-12-13T15:00:47.140Z,17.75
2022-12-13T15:03:28.694Z,15.68
2022-12-13T15:06:01.050Z,16.83
2022-12-13T15:08:31.463Z,17.88
2022-12-13T15:11:08.085Z,16.08
2022-12-13T15:13:47.464Z,18.25
2022-12-13T15:16:35.444Z,17.98
2022-12-13T15:19:31.331Z,20.35
2022-12-13T15:22:13.621Z,18.88
2022-12-13T15:24:49.373Z,17.30
2022-12-13T15:27:24.720Z,16.10
2022-12-13T15:29:54.717Z,22.05
2022-12-13T15:32:23.610Z,23.00
2022-12-13T15:34:52.665Z,21.80
2022-12-13T15:37:33.469Z,19.90
2022-12-13T15:40:09.556Z,20.55
2022-12-13T15:42:39.492Z,19.30
2022-12-13T15:45:19.245Z,19.48
2022-12-13T15:47:48.223Z,17.52
2022-12-13T15:50:37.555Z,16.73
2022-12-13T15:53:29.149Z,19.23
2022-12-13T15:56:00.342Z,23.08
2022-12-13T15:58:36.821Z,19.40
2022-12-13T16:01:06.226Z,25.02
2022-12-13T16:03:47.483Z,21.90
2022-12-13T16:06:22.527Z,30.70
2022-12-13T16:09:03.213Z,26.83
2022-12-13T16:11:34.019Z,27.58
2022-12-13T16:14:49.409Z,28.92
2022-12-13T16:17:29.758Z,26.42
2022-12-13T16:20:07.681Z,24.33
2022-12-13T16:22:37.024Z,23.95
2022-12-13T16:25:04.836Z,25.33
2022-12-13T16:27:34.663Z,21.13
2022-12-13T16:30:02.361Z,24.75
2022-12-13T16:32:36.143Z,21.92
2022-12-13T16:35:17.948Z,23.25
2022-12-13T16:37:47.940Z,20.35
2022-12-13T16:40:31.357Z,21.60
2022-12-13T16:43:05.192Z,23.20
2022-12-13T16:45:44.587Z,23.75
2022-12-13T16:48:13.379Z,23.83
2022-12-13T16:50:46.470Z,26.05
2022-12-13T16:53:17.457Z,25.38
2022-12-13T16:55:58.015Z,21.58
2022-12-13T16:58:26.603Z,25.85
2022-12-13T17:00:58.879Z,24.17
2022-12-13T17:03:28.181Z,23.83
2022-12-13T17:05:58.675Z,24.17
2022-12-13T17:08:26.809Z,26.50
2022-12-13T17:10:57.846Z,26.95
2022-12-13T17:13:27.249Z,31.23
2022-12-13T17:15:59.797Z,29.60
2022-12-13T17:18:27.730Z,30.98
2022-12-13T17:20:58.366Z,31.67
2022-12-13T17:23:27.541Z,29.95
2022-12-13T17:25:57.839Z,34.55
2022-12-13T17:28:26.001Z,35.40
2022-12-13T17:30:55.009Z,36.58
2022-12-13T17:33:23.158Z,37.75
2022-12-13T17:35:51.183Z,33.65
2022-12-13T17:38:18.675Z,24.85
2022-12-13T17:40:54.392Z,21.83
2022-12-13T17:43:33.089Z,25.88
2022-12-13T17:46:05.377Z,26.60
2022-12-13T17:48:39.791Z,28.30
2022-12-13T17:51:09.581Z,21.05
2022-12-13T17:53:39.827Z,22.25
2022-12-13T17:56:09.778Z,26.10
2022-12-13T17:58:37.982Z,27.00
2022-12-13T18:01:16.932Z,29.48
2022-12-13T18:03:45.258Z,21.55
2022-12-13T18:06:12.894Z,16.60
2022-12-13T18:08:42.695Z,23.27
2022-12-13T18:13:59.518Z,27.75
2022-12-13T18:16:33.941Z,31.73
2022-12-13T18:19:06.632Z,35.63
2022-12-13T18:21:35.795Z,34.88
2022-12-13T18:24:03.921Z,34.53
2022-12-13T18:26:31.499Z,36.35
2022-12-13T18:28:59.005Z,33.75
2022-12-13T18:31:27.013Z,36.05
2022-12-13T18:33:55.143Z,32.17
2022-12-13T18:36:25.134Z,29.85
2022-12-13T18:38:53.825Z,30.15
2022-12-13T18:41:24.530Z,27.52
2022-12-13T18:44:03.264Z,17.83
2022-12-13T18:46:32.916Z,25.63
2022-12-13T18:49:01.398Z,17.48
2022-12-13T18:51:29.163Z,24.73
2022-12-13T18:53:56.929Z,24.58
2022-12-13T18:56:26.047Z,24.00
2022-12-13T18:58:55.250Z,27.65
2022-12-13T19:01:23.250Z,20.20
2022-12-13T19:03:51.577Z,22.38
2022-12-13T19:06:29.480Z,24.85
2022-12-13T19:08:59.092Z,22.33
2022-12-13T19:11:28.401Z,20.58
2022-12-13T19:13:56.287Z,17.70
2022-12-13T19:16:25.396Z,16.30
2022-12-13T19:18:53.310Z,16.58
2022-12-13T19:21:22.332Z,16.52
2022-12-13T19:23:56.400Z,20.17
2022-12-13T19:26:27.771Z,16.50
2022-12-13T19:28:57.195Z,15.85
2022-12-13T19:31:31.023Z,15.95
2022-12-13T19:34:01.882Z,18.00
2022-12-13T19:36:31.040Z,14.95
2022-12-13T19:38:59.169Z,18.23
2022-12-13T19:41:27.395Z,16.95
2022-12-13T19:43:54.943Z,16.85
2022-12-13T19:46:22.582Z,15.60
2022-12-13T19:48:50.531Z,16.08
2022-12-13T19:51:18.385Z,19.10
2022-12-13T19:53:46.533Z,22.33
2022-12-13T19:56:17.900Z,30.70
2022-12-13T19:58:47.054Z,19.95
2022-12-13T20:01:15.429Z,22.35
2022-12-13T20:03:45.924Z,17.05
2022-12-13T20:06:17.153Z,21.77
2022-12-13T20:08:45.581Z,19.00
2022-12-13T20:11:16.364Z,20.27
2022-12-13T20:13:43.938Z,16.40
2022-12-13T20:16:23.362Z,19.83
2022-12-13T20:18:59.375Z,24.20
2022-12-13T20:21:28.023Z,21.90
2022-12-13T20:23:55.637Z,25.65
2022-12-13T20:26:25.380Z,27.20
2022-12-13T20:28:53.114Z,29.52
2022-12-13T20:31:24.309Z,26.35
2022-12-13T20:33:57.561Z,24.23
2022-12-13T20:36:28.038Z,24.40
2022-12-13T20:38:57.350Z,22.42
2022-12-13T20:41:27.003Z,25.85
2022-12-13T20:43:56.024Z,24.83
2022-12-13T20:46:24.944Z,27.65
2022-12-13T20:48:53.220Z,26.90
2022-12-13T20:51:22.949Z,28.77
2022-12-13T20:53:52.528Z,27.25
2022-12-13T20:56:25.758Z,35.00
2022-12-13T20:58:53.505Z,31.02
2022-12-13T21:01:30.848Z,27.90
2022-12-13T21:04:00.726Z,24.23
2022-12-13T21:06:30.157Z,21.35
2022-12-13T21:09:08.272Z,25.30
2022-12-13T21:11:37.685Z,14.75
2022-12-13T21:14:21.458Z,14.48
2022-12-13T21:16:52.170Z,15.82
2022-12-13T21:19:27.657Z,14.63
2022-12-13T21:21:56.920Z,13.65
2022-12-13T21:24:26.233Z,18.23
2022-12-13T21:26:56.750Z,12.98
2022-12-13T21:29:24.835Z,19.20
2022-12-13T21:31:53.666Z,16.00
2022-12-13T21:34:22.565Z,21.70
2022-12-13T21:36:55.018Z,13.45
2022-12-13T21:39:28.165Z,14.57
2022-12-13T21:41:56.925Z,12.15
2022-12-13T21:44:24.508Z,12.52
2022-12-13T21:47:11.862Z,10.57
2022-12-13T21:49:40.150Z,12.35
2022-12-13T21:52:07.669Z,13.32
2022-12-13T21:54:35.115Z,11.18
2022-12-13T21:57:20.853Z,11.48
2022-12-13T21:59:48.320Z,11.10
2022-12-13T22:02:18.850Z,12.95
2022-12-13T22:04:50.742Z,15.70
2022-12-13T22:07:19.585Z,21.73
2022-12-13T22:09:48.400Z,25.63
2022-12-13T22:12:29.952Z,33.45
2022-12-13T22:14:57.467Z,32.40
2022-12-13T22:17:33.027Z,33.13
2022-12-13T22:20:03.221Z,33.03
2022-12-13T22:22:32.030Z,21.17
2022-12-13T22:24:59.608Z,31.08
2022-12-13T22:27:27.101Z,20.50
2022-12-13T22:29:57.406Z,30.42
2022-12-13T22:32:27.762Z,37.85
2022-12-13T22:34:55.843Z,29.13
2022-12-13T22:37:23.880Z,30.17
2022-12-13T22:39:51.579Z,28.80
2022-12-13T22:42:19.976Z,25.70
2022-12-13T22:44:48.020Z,23.92
2022-12-13T22:47:15.622Z,19.52
2022-12-13T22:49:43.106Z,19.08
2022-12-13T22:52:10.639Z,15.52
2022-12-13T22:54:38.153Z,14.57
2022-12-13T22:57:07.458Z,7.88
2022-12-13T22:59:34.981Z,5.78
2022-12-13T23:02:04.235Z,7.68
2022-12-13T23:04:34.682Z,6.93
2022-12-13T23:07:02.201Z,7.30
2022-12-13T23:09:30.986Z,5.82
2022-12-13T23:12:16.784Z,4.45
2022-12-13T23:14:44.208Z,6.38
2022-12-13T23:17:11.809Z,9.43
2022-12-13T23:19:50.944Z,4.88
2022-12-13T23:22:25.967Z,7.03
2022-12-13T23:24:53.987Z,10.85
2022-12-13T23:27:23.518Z,12.27
2022-12-13T23:29:51.055Z,7.82
2022-12-13T23:32:18.559Z,11.85
2022-12-13T23:34:46.035Z,9.05
2022-12-13T23:37:13.997Z,15.73
2022-12-13T23:39:41.878Z,15.73
2022-12-13T23:42:09.506Z,15.80
2022-12-13T23:44:37.028Z,10.95
2022-12-13T23:47:04.542Z,16.13
2022-12-13T23:49:32.639Z,7.72
2022-12-13T23:52:00.102Z,11.32
2022-12-13T23:54:27.593Z,11.70
2022-12-13T23:56:55.118Z,19.75
2022-12-13T23:59:26.161Z,16.27
